LQSA/SJJ METAR and TAF weather

Enter ICAO airport designator
Station Type Date Time Source
LQSA METAR 2020/01/29 03:00 UTC NOAA

LQSA 290300Z 31008KT 9999 -RA FEW020 SCT025 BKN040 03/03 Q1009


Station Type Date Time Source
LQSA Decoded METAR 2020/01/29 03:00 UTC NOAA

Sarajevo, Bosnia and Herzegovina (LQSA) 43-49N 018-20E 510M
Jan 28, 2020 - 10:00 PM EST / 2020.01.29 0300 UTC
Wind: from the NW (310 degrees) at 9 MPH (8 KT):0
Visibility: greater than 7 mile(s):0
Sky conditions: mostly cloudy
Weather: light rain
Temperature: 37 F (3 C)
Dew Point: 37 F (3 C)
Relative Humidity: 100%
Pressure (altimeter): 29.80 in. Hg (1009 hPa)
ob: LQSA 290300Z 31008KT 9999 -RA FEW020 SCT025 BKN040 03/03 Q1009
cycle: 3

Station Type Date Time Source
LQSA TAF 2020/01/28 18:06 UTC NOAA

TAF TAF LQSA 281700Z 2818/2918 VRB05KT 9999 BKN040 TX09/2818Z TN01/2906Z
TEMPO 2818/2823 16012KT PROB30
TEMPO 2823/2906 30010KT 3000 RA BR BKN007 BKN030

Example: see airport list